Time;durP1;ratioP1;P1;durP2;ratioP2;P2;SDS_P1;SDS_P2;PMS_P1;PMS_P2;Temp;Humidity;BMP_temperature;BMP_pressure;BME280_temperature;BME280_humidity;BME280_pressure;Samples;Min_cycle;Max_cycle;Signal;HPM_P1;HPM_P2
2022/11/29 00:00:34;;;;;;;5.22;3.92;;;;;;;3.99;72.98;102871.50;6116723;23;20679;-75
2022/11/29 00:03:01;;;;;;;5.15;3.63;;;;;;;3.86;73.02;102845.94;6118141;23;20029;-75
2022/11/29 00:05:28;;;;;;;6.50;4.03;;;;;;;3.99;73.30;102867.22;6116909;23;20023;-75
2022/11/29 00:07:56;;;;;;;5.07;3.67;;;;;;;4.00;73.30;102868.09;6118207;23;20025;-76
2022/11/29 00:10:23;;;;;;;4.97;3.55;;;;;;;4.00;73.10;102868.97;6116876;23;20401;-77
2022/11/29 00:12:50;;;;;;;5.07;3.58;;;;;;;4.01;73.51;102864.69;6117581;23;20393;-76
2022/11/29 00:15:17;;;;;;;6.70;4.45;;;;;;;4.00;73.13;102858.63;6116985;23;20607;-74
2022/11/29 00:17:43;;;;;;;5.47;4.15;;;;;;;4.01;73.02;102862.09;6116390;23;20667;-75
2022/11/29 00:20:12;;;;;;;5.45;4.13;;;;;;;3.95;73.37;102854.09;6116009;23;20390;-75
2022/11/29 00:22:39;;;;;;;7.78;3.72;;;;;;;4.01;73.10;102864.69;6117620;23;20069;-77
2022/11/29 00:25:08;;;;;;;7.47;4.28;;;;;;;4.00;73.13;102862.91;6116637;23;20022;-76
2022/11/29 00:27:34;;;;;;;4.13;3.72;;;;;;;4.00;73.41;102865.50;6116972;23;20057;-77
2022/11/29 00:30:01;;;;;;;5.78;3.67;;;;;;;3.89;72.90;102843.50;6116465;23;20069;-76
2022/11/29 00:32:28;;;;;;;8.75;5.60;;;;;;;4.02;73.10;102861.28;6116810;23;20025;-75
2022/11/29 00:34:54;;;;;;;5.38;3.67;;;;;;;4.00;72.90;102847.41;6117348;23;20059;-75
2022/11/29 00:37:21;;;;;;;7.97;4.13;;;;;;;4.02;72.86;102851.81;6116874;23;20455;-77
2022/11/29 00:39:48;;;;;;;5.55;4.20;;;;;;;3.99;73.02;102843.06;6115342;23;20026;-75
2022/11/29 00:42:16;;;;;;;6.18;4.50;;;;;;;3.96;73.36;102840.34;6117218;23;20084;-75
2022/11/29 00:44:43;;;;;;;5.43;4.45;;;;;;;4.04;73.11;102850.19;6116690;23;20410;-75
2022/11/29 00:47:10;;;;;;;9.43;3.60;;;;;;;4.05;72.78;102851.06;6117342;23;20021;-76
2022/11/29 00:49:36;;;;;;;8.98;4.28;;;;;;;4.05;73.20;102854.53;6116273;23;20018;-75
2022/11/29 00:52:03;;;;;;;6.68;3.50;;;;;;;4.05;73.11;102851.06;6117639;23;20030;-75
2022/11/29 00:54:30;;;;;;;5.57;4.13;;;;;;;4.07;72.95;102849.44;6116429;23;20096;-75
2022/11/29 00:56:57;;;;;;;4.85;3.53;;;;;;;4.08;73.03;102846.03;6116802;23;20021;-75
2022/11/29 00:59:25;;;;;;;5.15;4.07;;;;;;;3.98;72.84;102833.53;6116123;23;20026;-76
2022/11/29 01:01:52;;;;;;;3.95;3.08;;;;;;;4.08;72.86;102853.78;6117019;23;20383;-76
2022/11/29 01:04:19;;;;;;;7.88;3.70;;;;;;;4.11;72.98;102853.91;6116196;23;20029;-75
2022/11/29 01:06:46;;;;;;;6.00;4.13;;;;;;;4.12;72.66;102858.25;6117033;23;20036;-75
2022/11/29 01:09:13;;;;;;;6.28;3.15;;;;;;;4.08;73.04;102853.78;6115076;23;20096;-75
2022/11/29 01:11:39;;;;;;;3.13;2.63;;;;;;;4.14;73.19;102851.44;6117848;23;20022;-75
2022/11/29 01:14:06;;;;;;;5.00;3.58;;;;;;;4.17;72.58;102851.56;6117229;23;20026;-75
2022/11/29 01:16:35;;;;;;;5.90;3.70;;;;;;;4.19;72.96;102849.06;6118797;23;20021;-75
2022/11/29 01:19:02;;;;;;;4.38;2.85;;;;;;;4.18;72.65;102853.31;6117947;23;20741;-76
2022/11/29 01:21:30;;;;;;;5.78;3.45;;;;;;;4.18;72.51;102848.16;6118539;23;20033;-77
2022/11/29 01:23:57;;;;;;;6.85;3.40;;;;;;;3.98;72.93;102816.28;6116546;23;20077;-76
2022/11/29 01:26:26;;;;;;;4.15;2.78;;;;;;;4.11;72.44;102830.63;6117115;23;20025;-76
2022/11/29 01:28:55;;;;;;;6.15;3.15;;;;;;;4.20;72.39;102850.81;6118047;23;20139;-77
2022/11/29 01:31:24;;;;;;;5.10;3.08;;;;;;;4.19;72.67;102852.53;6118568;23;20030;-76
2022/11/29 01:33:54;;;;;;;3.13;2.42;;;;;;;4.22;72.50;102847.47;6117904;23;20450;-76
2022/11/29 01:36:21;;;;;;;3.58;2.33;;;;;;;4.23;72.25;102849.22;6119039;23;20018;-75
2022/11/29 01:38:49;;;;;;;7.65;3.35;;;;;;;4.22;72.56;102847.47;6116975;23;20879;-76
2022/11/29 01:41:18;;;;;;;8.65;2.55;;;;;;;4.12;72.30;102832.38;6117755;23;20340;-75
2022/11/29 01:43:59;;;;;;;5.28;2.55;;;;;;;4.23;72.41;102850.94;6118517;23;20030;-76
2022/11/29 01:46:26;;;;;;;5.80;2.83;;;;;;;4.22;72.20;102849.19;6117001;23;20017;-75
2022/11/29 01:48:59;;;;;;;7.72;2.88;;;;;;;4.24;72.24;102850.09;6117307;23;20026;-76
2022/11/29 01:51:28;;;;;;;5.97;3.28;;;;;;;4.12;72.20;102827.22;6113944;23;20632;-76
2022/11/29 01:53:55;;;;;;;4.28;3.05;;;;;;;4.08;72.61;102822.75;6117231;23;20030;-76
2022/11/29 01:56:23;;;;;;;4.20;2.63;;;;;;;4.23;72.45;102846.66;6117314;23;20029;-76
2022/11/29 01:58:50;;;;;;;3.08;2.47;;;;;;;4.23;72.63;102843.19;6117744;23;20089;-76
2022/11/29 02:01:17;;;;;;;5.55;2.20;;;;;;;4.10;72.32;102823.69;6117300;23;20490;-76
2022/11/29 02:03:44;;;;;;;2.92;2.00;;;;;;;4.24;72.36;102847.53;6116799;23;20112;-76
2022/11/29 02:06:13;;;;;;;4.95;2.90;;;;;;;4.25;72.31;102847.59;6116913;23;20026;-76
2022/11/29 02:08:41;;;;;;;4.15;3.03;;;;;;;4.26;72.66;102844.19;6117417;23;20862;-76
2022/11/29 02:11:44;;;;;;;2.97;2.25;;;;;;;4.25;72.43;102850.19;6116106;23;20092;-76
2022/11/29 02:14:28;;;;;;;3.15;2.15;;;;;;;4.18;72.33;102842.97;6114802;23;20541;-75
2022/11/29 02:17:00;;;;;;;4.07;3.10;;;;;;;4.21;72.67;102843.13;6118217;23;20076;-76
2022/11/29 02:19:48;;;;;;;4.05;2.38;;;;;;;4.16;72.63;102838.59;6119454;23;20030;-76
2022/11/29 02:22:21;;;;;;;2.88;2.00;;;;;;;4.15;72.56;102842.84;6120595;23;20114;-76
2022/11/29 02:25:03;;;;;;;3.28;2.72;;;;;;;4.18;72.87;102844.69;6121157;23;20124;-77
2022/11/29 02:28:03;;;;;;;2.63;2.05;;;;;;;4.15;72.52;102853.19;6121467;23;20108;-75
2022/11/29 02:30:53;;;;;;;3.08;2.25;;;;;;;4.12;72.55;102850.50;6119478;23;20667;-76
2022/11/29 02:33:50;;;;;;;3.95;2.60;;;;;;;4.12;72.78;102850.50;6118992;23;20026;-75
2022/11/29 02:36:51;;;;;;;3.65;2.67;;;;;;;4.12;72.67;102850.50;6121709;23;20022;-75
2022/11/29 02:39:43;;;;;;;4.00;2.85;;;;;;;4.11;72.96;102848.72;6118489;23;20046;-76
2022/11/29 02:42:27;;;;;;;3.90;3.10;;;;;;;4.09;72.92;102850.38;6120119;23;20033;-76
2022/11/29 02:45:06;;;;;;;2.92;2.30;;;;;;;4.12;72.98;102854.78;6120635;23;20030;-75
2022/11/29 02:47:51;;;;;;;4.45;2.80;;;;;;;4.12;73.20;102850.50;6120014;23;20022;-77
2022/11/29 02:50:30;;;;;;;6.28;2.28;;;;;;;4.13;72.77;102860.03;6120760;23;20026;-75
2022/11/29 02:53:04;;;;;;;3.30;2.35;;;;;;;4.11;72.99;102859.09;6120945;23;20025;-76
2022/11/29 02:55:38;;;;;;;6.20;2.53;;;;;;;4.10;72.75;102852.16;6120222;23;20395;-75
2022/11/29 02:58:15;;;;;;;4.55;3.15;;;;;;;4.00;72.82;102834.47;6121271;23;20026;-75
2022/11/29 03:00:50;;;;;;;5.97;2.75;;;;;;;3.97;73.19;102839.53;6120654;23;20081;-75
2022/11/29 03:03:24;;;;;;;3.92;2.67;;;;;;;4.06;73.19;102853.72;6121660;23;20030;-75
2022/11/29 03:06:03;;;;;;;3.70;2.58;;;;;;;4.05;72.97;102851.94;6120811;23;20022;-75
2022/11/29 03:08:37;;;;;;;3.65;2.03;;;;;;;4.05;73.12;102853.66;6119632;23;20525;-75
2022/11/29 03:11:12;;;;;;;6.28;3.55;;;;;;;4.04;72.89;102847.59;6120867;23;20072;-76
2022/11/29 03:13:51;;;;;;;4.47;2.35;;;;;;;4.03;72.73;102852.69;6118697;23;20558;-75
2022/11/29 03:16:27;;;;;;;3.03;2.08;;;;;;;4.03;73.19;102851.00;6120972;23;20081;-75
2022/11/29 03:19:04;;;;;;;5.38;2.92;;;;;;;4.03;73.37;102848.41;6120227;23;20073;-76
2022/11/29 03:21:41;;;;;;;6.00;3.30;;;;;;;4.00;73.10;102843.13;6121675;23;20105;-76
2022/11/29 03:24:15;;;;;;;6.32;3.13;;;;;;;4.02;73.43;102849.25;6121225;23;20096;-75
2022/11/29 03:26:45;;;;;;;4.85;3.72;;;;;;;4.02;73.12;102850.94;6120319;23;20028;-76
2022/11/29 03:29:20;;;;;;;4.43;3.42;;;;;;;4.02;73.40;102850.94;6113438;23;20327;-76
2022/11/29 03:31:56;;;;;;;4.03;2.58;;;;;;;4.02;73.33;102850.94;6121283;23;20081;-75
2022/11/29 03:34:38;;;;;;;5.68;3.60;;;;;;;4.01;73.15;102851.75;6121735;23;20018;-76
2022/11/29 03:37:13;;;;;;;4.57;3.13;;;;;;;4.00;73.16;102850.88;6121262;23;20026;-75
2022/11/29 03:39:49;;;;;;;6.40;4.05;;;;;;;4.01;73.52;102849.16;6121118;23;20097;-75
2022/11/29 03:42:24;;;;;;;6.70;4.15;;;;;;;4.01;73.46;102841.41;6121427;23;20025;-75
2022/11/29 03:44:57;;;;;;;5.30;3.35;;;;;;;4.01;73.07;102846.56;6122261;23;20026;-76
2022/11/29 03:47:28;;;;;;;4.13;3.10;;;;;;;4.00;73.68;102840.53;6122782;23;20022;-76
2022/11/29 03:50:01;;;;;;;6.70;3.22;;;;;;;4.01;73.46;102847.47;6122310;23;20022;-76
2022/11/29 03:52:35;;;;;;;5.80;3.63;;;;;;;4.02;73.68;102841.47;6123453;23;20030;-76
2022/11/29 03:55:19;;;;;;;3.55;2.25;;;;;;;4.02;73.59;102850.94;6122386;23;20485;-73
2022/11/29 03:57:56;;;;;;;4.45;2.80;;;;;;;4.03;73.51;102852.69;6121543;23;20026;-74
2022/11/29 04:00:23;;;;;;;4.75;3.08;;;;;;;3.94;73.47;102836.81;6121738;23;20022;-74
2022/11/29 04:03:24;;;;;;;7.28;3.55;;;;;;;4.06;73.52;102860.59;6122157;23;20089;-73
2022/11/29 04:06:10;;;;;;;3.65;2.88;;;;;;;4.05;73.47;102853.66;6121106;23;20022;-74
2022/11/29 04:09:24;;;;;;;3.83;3.20;;;;;;;4.05;73.13;102859.72;6118404;23;20022;-74
2022/11/29 04:12:37;;;;;;;6.85;3.72;;;;;;;4.05;73.41;102856.25;6121343;23;20332;-73
2022/11/29 04:15:31;;;;;;;5.22;2.65;;;;;;;4.02;73.13;102851.81;6075102;23;20501;-73
2022/11/29 04:18:40;;;;;;;4.88;2.47;;;;;;;4.02;73.29;102856.13;6121140;23;20026;-74
2022/11/29 04:21:36;;;;;;;4.97;2.90;;;;;;;4.02;72.97;102866.47;6121403;23;20085;-74
2022/11/29 04:24:35;;;;;;;4.88;2.83;;;;;;;4.03;73.18;102865.63;6121601;23;20084;-73
2022/11/29 04:27:37;;;;;;;4.65;2.90;;;;;;;4.03;73.01;102868.22;6121706;23;20022;-74
2022/11/29 04:30:09;;;;;;;3.20;2.63;;;;;;;4.04;73.34;102867.38;6110994;23;20033;-75
2022/11/29 04:33:16;;;;;;;4.10;2.10;;;;;;;4.04;72.96;102870.88;6121216;23;20482;-73
2022/11/29 04:35:57;;;;;;;4.90;2.38;;;;;;;4.07;72.84;102870.13;6120843;23;20025;-74
2022/11/29 04:38:56;;;;;;;2.83;2.10;;;;;;;4.08;72.92;102869.31;6122526;23;20069;-73
2022/11/29 04:41:42;;;;;;;4.90;2.78;;;;;;;4.08;72.45;102866.72;6123178;23;20021;-73
2022/11/29 04:44:28;;;;;;;3.75;2.45;;;;;;;4.09;72.57;102867.59;6122031;23;20034;-74
2022/11/29 04:47:21;;;;;;;4.93;3.60;;;;;;;4.09;72.63;102873.66;6123329;23;20399;-74
2022/11/29 04:50:03;;;;;;;5.63;2.67;;;;;;;4.01;72.12;102854.34;6123062;23;20050;-73
2022/11/29 04:52:56;;;;;;;3.70;2.55;;;;;;;4.10;72.70;102866.75;6122451;23;20076;-74
2022/11/29 04:55:37;;;;;;;4.63;2.10;;;;;;;4.10;72.29;102875.44;6121459;23;20065;-73
2022/11/29 04:58:16;;;;;;;3.33;2.63;;;;;;;4.12;72.46;102881.53;6121687;23;20029;-73
2022/11/29 05:00:54;;;;;;;2.55;1.80;;;;;;;4.13;72.48;102882.44;6121770;23;20080;-73
2022/11/29 05:03:34;;;;;;;3.97;2.72;;;;;;;4.14;72.43;102876.44;6121925;23;20029;-74
2022/11/29 05:06:12;;;;;;;3.78;1.85;;;;;;;4.16;71.91;102870.50;6120831;23;20022;-73
2022/11/29 05:08:47;;;;;;;4.80;2.40;;;;;;;4.16;72.42;102874.81;6120442;23;20025;-74
2022/11/29 05:11:21;;;;;;;3.55;2.40;;;;;;;4.17;71.77;102873.97;6122306;23;20351;-74
2022/11/29 05:13:56;;;;;;;3.95;2.25;;;;;;;4.06;71.87;102860.59;6121953;23;20513;-74
2022/11/29 05:16:40;;;;;;;2.50;1.77;;;;;;;4.18;72.08;102879.19;6123659;23;20021;-75
2022/11/29 05:19:41;;;;;;;4.55;2.22;;;;;;;4.19;72.10;102880.09;6123844;23;20026;-75
2022/11/29 05:22:28;;;;;;;3.45;2.00;;;;;;;4.17;71.72;102868.81;6121085;23;20435;-76
2022/11/29 05:25:10;;;;;;;3.30;1.90;;;;;;;4.19;71.56;102883.56;6120743;23;20034;-78
2022/11/29 05:27:45;;;;;;;4.60;3.08;;;;;;;4.19;72.02;102886.16;6122137;23;20029;-76
2022/11/29 05:30:15;;;;;;;4.15;2.85;;;;;;;4.18;72.13;102894.72;6122899;23;20029;-76
2022/11/29 05:32:56;;;;;;;4.15;2.75;;;;;;;4.16;71.99;102891.19;6120830;23;20481;-76
2022/11/29 05:35:40;;;;;;;5.57;2.67;;;;;;;4.10;72.03;102885.78;6121185;23;20446;-76
2022/11/29 05:38:24;;;;;;;3.53;2.80;;;;;;;4.18;72.19;102892.13;6119211;23;20073;-76
2022/11/29 05:41:03;;;;;;;4.95;2.17;;;;;;;4.17;71.94;102895.53;6119480;23;20037;-76
2022/11/29 05:43:47;;;;;;;4.10;2.67;;;;;;;4.16;71.92;102893.78;6123489;23;20058;-78
2022/11/29 05:46:22;;;;;;;3.67;2.80;;;;;;;4.15;71.80;102894.59;6122040;23;20022;-76
2022/11/29 05:48:58;;;;;;;3.92;2.35;;;;;;;4.13;71.62;102896.25;6122450;23;20081;-76
2022/11/29 05:51:37;;;;;;;4.90;2.33;;;;;;;4.14;71.99;102910.94;6123423;23;20630;-76
2022/11/29 05:54:15;;;;;;;4.38;3.08;;;;;;;4.13;72.15;102904.00;6123109;23;20025;-77
2022/11/29 05:56:53;;;;;;;3.65;2.85;;;;;;;4.16;72.02;102898.09;6122865;23;20045;-76
2022/11/29 05:59:23;;;;;;;3.40;2.50;;;;;;;4.15;72.11;102904.94;6122605;23;20025;-76
2022/11/29 06:01:59;;;;;;;4.38;2.55;;;;;;;4.15;72.08;102907.53;6122747;23;20022;-76
2022/11/29 06:04:35;;;;;;;3.70;2.55;;;;;;;4.01;71.77;102882.78;6122605;23;20537;-76
2022/11/29 06:07:11;;;;;;;5.80;2.55;;;;;;;4.16;71.89;102906.72;6123873;23;20022;-76
2022/11/29 06:09:46;;;;;;;4.05;1.90;;;;;;;3.89;71.71;102869.34;6123278;23;20327;-76
2022/11/29 06:12:16;;;;;;;11.60;2.60;;;;;;;4.13;71.81;102911.78;6120488;23;20081;-77
2022/11/29 06:15:19;;;;;;;5.53;2.70;;;;;;;4.13;72.06;102911.78;6121781;23;20025;-76
2022/11/29 06:18:09;;;;;;;3.63;1.92;;;;;;;4.10;72.06;102906.47;6085466;23;20025;-76
2022/11/29 06:20:55;;;;;;;3.25;2.58;;;;;;;4.06;71.73;102907.13;6122503;23;20339;-76
2022/11/29 06:23:40;;;;;;;4.03;2.10;;;;;;;4.15;71.79;102919.56;6121329;23;20026;-76
2022/11/29 06:26:19;;;;;;;3.85;2.28;;;;;;;4.13;71.70;102922.13;6120861;23;20462;-76
2022/11/29 06:29:01;;;;;;;3.55;2.33;;;;;;;4.12;71.54;102922.03;6123687;23;20026;-75
2022/11/29 06:31:32;;;;;;;8.20;2.20;;;;;;;4.13;71.80;102927.28;6122917;23;20022;-76
2022/11/29 06:34:06;;;;;;;4.75;2.45;;;;;;;4.13;71.75;102927.28;6123182;23;20022;-76
2022/11/29 06:36:39;;;;;;;2.65;1.70;;;;;;;4.13;71.73;102923.81;6122685;23;20056;-76
2022/11/29 06:39:09;;;;;;;3.55;1.80;;;;;;;4.13;71.39;102929.88;6121228;23;20110;-76
2022/11/29 06:41:36;;;;;;;4.50;1.52;;;;;;;4.11;71.89;102922.88;6122226;23;20022;-75
2022/11/29 06:44:04;;;;;;;3.20;1.45;;;;;;;4.01;71.38;102906.06;6122747;23;20025;-76
2022/11/29 06:46:44;;;;;;;1.92;1.23;;;;;;;4.16;71.65;102926.53;6122684;23;20026;-76
2022/11/29 06:49:17;;;;;;;3.92;1.45;;;;;;;4.11;71.38;102921.16;6122987;23;20026;-76
2022/11/29 06:51:54;;;;;;;3.90;1.60;;;;;;;4.14;71.56;102930.75;6122499;23;20033;-76
2022/11/29 06:54:34;;;;;;;4.18;1.58;;;;;;;4.21;71.38;102930.19;6122556;23;20026;-76
2022/11/29 06:57:09;;;;;;;2.08;1.10;;;;;;;4.13;71.28;102927.28;6121324;23;20549;-76
2022/11/29 06:59:50;;;;;;;5.28;2.25;;;;;;;4.21;71.64;102941.44;6123318;23;20489;-76
2022/11/29 07:02:41;;;;;;;4.65;2.40;;;;;;;4.20;71.62;102933.59;6123287;23;20033;-76
2022/11/29 07:05:15;;;;;;;6.30;3.10;;;;;;;4.06;71.70;102920.94;6124131;23;20080;-76
2022/11/29 07:07:45;;;;;;;5.65;2.47;;;;;;;4.16;71.23;102932.59;6123452;23;20081;-76
2022/11/29 07:10:15;;;;;;;5.57;2.58;;;;;;;4.23;71.41;102944.94;6123230;23;20057;-78
2022/11/29 07:12:43;;;;;;;4.95;2.45;;;;;;;4.22;71.56;102948.38;6123233;23;20097;-77
2022/11/29 07:15:14;;;;;;;5.72;2.40;;;;;;;4.24;71.70;102946.72;6124496;23;20450;-76
2022/11/29 07:17:51;;;;;;;5.40;2.38;;;;;;;4.23;71.56;102947.53;6122698;23;20717;-77
2022/11/29 07:20:26;;;;;;;4.20;2.53;;;;;;;4.25;71.56;102953.66;6123612;23;20022;-77
2022/11/29 07:23:05;;;;;;;2.30;1.73;;;;;;;4.24;71.28;102946.72;6123232;23;20026;-77
2022/11/29 07:25:43;;;;;;;4.03;2.22;;;;;;;4.17;71.21;102938.63;6123566;23;20026;-76
2022/11/29 07:28:23;;;;;;;5.57;2.83;;;;;;;4.25;71.49;102955.38;6122572;23;20517;-76
2022/11/29 07:30:57;;;;;;;3.90;2.60;;;;;;;4.25;71.50;102956.25;6124414;23;20041;-76
2022/11/29 07:33:30;;;;;;;6.00;2.10;;;;;;;4.23;71.64;102955.28;6122746;23;20065;-77
2022/11/29 07:36:06;;;;;;;3.88;2.47;;;;;;;4.20;71.39;102946.53;6124065;23;20018;-76
2022/11/29 07:38:49;;;;;;;5.45;2.05;;;;;;;4.26;71.66;102958.00;6123732;23;20090;-76
2022/11/29 07:41:24;;;;;;;4.43;2.17;;;;;;;4.29;71.82;102963.31;6122365;23;20469;-76
2022/11/29 07:44:00;;;;;;;5.65;2.72;;;;;;;4.20;71.58;102946.53;6124003;23;20029;-76
2022/11/29 07:46:27;;;;;;;3.78;2.35;;;;;;;4.33;71.53;102968.66;6124020;23;20085;-77
2022/11/29 07:48:54;;;;;;;3.20;2.13;;;;;;;4.32;71.63;102961.69;6122638;23;20154;-77
2022/11/29 07:51:21;;;;;;;1.77;1.48;;;;;;;4.33;71.20;102966.06;6124262;23;20029;-78
2022/11/29 07:53:49;;;;;;;2.42;1.75;;;;;;;4.32;71.05;102967.72;6123737;23;20390;-77
2022/11/29 07:56:16;;;;;;;3.05;1.60;;;;;;;4.33;71.13;102966.06;6122839;23;20033;-78
2022/11/29 07:58:43;;;;;;;4.85;1.50;;;;;;;4.33;71.39;102961.75;6123306;23;20505;-77
2022/11/29 08:01:09;;;;;;;2.08;1.30;;;;;;;4.35;71.57;102966.97;6122112;23;20490;-77
2022/11/29 08:03:36;;;;;;;1.83;1.33;;;;;;;4.33;71.50;102959.19;6123762;23;20074;-77
2022/11/29 08:06:03;;;;;;;2.10;1.02;;;;;;;4.36;71.14;102972.25;6124798;23;20481;-78
2022/11/29 08:08:30;;;;;;;4.13;1.70;;;;;;;4.37;71.44;102967.94;6123699;23;20589;-77
2022/11/29 08:10:58;;;;;;;4.75;1.42;;;;;;;4.39;71.14;102972.38;6122752;23;20093;-77
2022/11/29 08:13:25;;;;;;;1.30;1.00;;;;;;;4.39;71.07;102971.50;6121848;23;20098;-78
2022/11/29 08:15:52;;;;;;;4.13;1.50;;;;;;;4.36;71.19;102968.78;6124389;23;20018;-76
2022/11/29 08:18:19;;;;;;;1.73;1.38;;;;;;;4.37;70.89;102965.34;6123155;23;20037;-77
2022/11/29 08:20:45;;;;;;;3.72;1.60;;;;;;;4.34;70.67;102963.53;6124289;23;20030;-77
2022/11/29 08:23:13;;;;;;;3.10;1.27;;;;;;;4.37;70.85;102967.94;6123461;23;20029;-77
2022/11/29 08:25:40;;;;;;;5.65;2.30;;;;;;;4.29;71.20;102952.97;6126595;23;20602;-77
2022/11/29 08:28:08;;;;;;;3.60;1.55;;;;;;;4.39;70.94;102963.72;6125461;23;20022;-77
2022/11/29 08:30:35;;;;;;;2.50;1.80;;;;;;;4.34;70.69;102962.63;6125559;23;20414;-77
2022/11/29 08:33:02;;;;;;;3.38;1.65;;;;;;;4.34;71.13;102970.41;6125431;23;20086;-77
2022/11/29 08:35:29;;;;;;;1.73;0.95;;;;;;;4.29;71.23;102960.72;6126046;23;20018;-77
2022/11/29 08:37:56;;;;;;;2.22;1.73;;;;;;;4.36;70.99;102972.25;6126108;23;20022;-77
2022/11/29 08:40:23;;;;;;;1.65;1.15;;;;;;;4.39;70.94;102972.38;6126039;23;20024;-77
2022/11/29 08:42:50;;;;;;;2.22;1.30;;;;;;;4.39;70.93;102971.50;6126305;23;20386;-77
2022/11/29 08:45:18;;;;;;;2.10;1.27;;;;;;;4.40;71.06;102974.13;6126475;23;20034;-77
2022/11/29 08:47:45;;;;;;;3.13;1.00;;;;;;;4.34;71.27;102962.63;6125757;23;20477;-77
2022/11/29 08:50:14;;;;;;;3.08;1.50;;;;;;;4.27;70.90;102957.22;6126775;23;20030;-78
2022/11/29 08:55:31;;;;;;;1.88;1.30;;;;;;;4.41;71.08;102980.19;6126206;23;20069;-77
2022/11/29 08:58:02;;;;;;;3.47;1.42;;;;;;;4.36;70.94;102966.19;6125534;23;20067;-77
2022/11/29 09:00:31;;;;;;;3.38;1.05;;;;;;;4.43;70.91;102981.13;6125889;23;20383;-77
2022/11/29 09:03:58;;;;;;;2.10;1.10;;;;;;;4.43;71.17;102974.25;6125395;23;20026;-77
2022/11/29 09:05:45;;;;;;;4.85;0.98;;;;;;;4.45;70.68;102982.09;6117077;23;20030;-77
2022/11/29 09:08:12;;;;;;;4.03;1.52;;;;;;;4.43;71.24;102978.53;6121000;23;20074;-77
2022/11/29 09:10:40;;;;;;;3.63;1.35;;;;;;;4.41;71.10;102973.31;6123033;23;20022;-77
2022/11/29 09:13:07;;;;;;;3.22;1.48;;;;;;;4.45;70.97;102977.78;6123127;23;20081;-78
2022/11/29 09:15:36;;;;;;;2.53;0.95;;;;;;;4.37;70.81;102963.66;6122115;23;20474;-77
2022/11/29 09:18:04;;;;;;;1.77;0.80;;;;;;;4.49;71.09;102979.69;6121448;23;20135;-77
2022/11/29 09:20:31;;;;;;;1.95;0.93;;;;;;;4.37;70.55;102957.59;6121614;23;20024;-77
2022/11/29 09:22:58;;;;;;;3.03;0.82;;;;;;;4.49;70.80;102978.78;6123164;23;20029;-77
2022/11/29 09:25:25;;;;;;;1.52;0.90;;;;;;;4.49;70.71;102976.22;6122967;23;20033;-77
2022/11/29 09:27:52;;;;;;;2.22;0.82;;;;;;;4.49;70.88;102984.84;6123963;23;20034;-77
2022/11/29 09:30:19;;;;;;;1.33;0.98;;;;;;;4.50;70.64;102975.41;6122030;23;20030;-77
2022/11/29 09:32:47;;;;;;;2.92;0.82;;;;;;;4.51;70.83;102977.16;6122971;23;20026;-77
2022/11/29 09:35:14;;;;;;;1.50;0.90;;;;;;;4.52;70.85;102973.75;6123610;23;20041;-77
2022/11/29 09:37:42;;;;;;;2.40;0.80;;;;;;;4.52;70.62;102973.75;6123082;23;20022;-77
2022/11/29 09:40:17;;;;;;;3.13;1.38;;;;;;;4.54;70.79;102973.81;6123670;23;20018;-77
2022/11/29 09:42:56;;;;;;;1.90;1.20;;;;;;;4.51;70.70;102967.69;6122870;23;20078;-78
2022/11/29 09:45:29;;;;;;;1.30;0.70;;;;;;;4.51;70.71;102962.53;6124182;23;20064;-77
2022/11/29 09:48:21;;;;;;;1.23;0.75;;;;;;;4.56;70.58;102970.47;6122800;23;20053;-77
2022/11/29 09:50:54;;;;;;;3.53;1.10;;;;;;;4.56;70.73;102970.47;6121591;23;20073;-77
2022/11/29 09:53:38;;;;;;;1.38;0.90;;;;;;;4.57;70.95;102972.25;6122755;23;20025;-77
2022/11/29 09:56:14;;;;;;;2.40;0.90;;;;;;;4.57;70.63;102969.66;6123274;23;20018;-77
2022/11/29 09:58:43;;;;;;;3.15;0.77;;;;;;;4.58;70.95;102979.22;6123901;23;20026;-77
2022/11/29 10:01:17;;;;;;;1.60;1.50;;;;;;;4.59;70.95;102973.19;6123414;23;20130;-77
2022/11/29 10:03:50;;;;;;;1.27;0.82;;;;;;;4.35;70.64;102933.34;6123559;23;20110;-76
2022/11/29 10:06:25;;;;;;;1.60;0.55;;;;;;;4.60;70.93;102972.38;6122524;23;20029;-77
2022/11/29 10:08:59;;;;;;;1.77;1.13;;;;;;;4.61;70.38;102973.25;6123017;23;20100;-77
2022/11/29 10:11:30;;;;;;;4.25;1.08;;;;;;;4.58;70.56;102971.44;6124256;23;20018;-77
2022/11/29 10:14:02;;;;;;;1.77;1.05;;;;;;;4.60;70.89;102969.78;6122584;23;20030;-77
2022/11/29 10:16:41;;;;;;;2.03;0.85;;;;;;;4.62;70.46;102975.91;6124064;23;20077;-76
2022/11/29 10:19:18;;;;;;;2.25;0.73;;;;;;;4.53;70.71;102970.34;6123106;23;20029;-77
2022/11/29 10:22:00;;;;;;;1.20;0.60;;;;;;;4.63;70.58;102980.25;6121902;23;20018;-77
2022/11/29 10:24:29;;;;;;;2.45;0.95;;;;;;;4.63;70.58;102972.50;6122425;23;20450;-77
2022/11/29 10:26:56;;;;;;;2.03;0.90;;;;;;;4.64;70.76;102979.47;6122954;23;20025;-78
2022/11/29 10:29:23;;;;;;;1.15;0.60;;;;;;;4.45;70.95;102957.09;6124494;23;20026;-77
2022/11/29 10:31:53;;;;;;;1.73;0.70;;;;;;;4.62;70.97;102975.03;6123947;23;20025;-77
2022/11/29 10:34:24;;;;;;;1.20;0.60;;;;;;;4.66;71.00;102985.56;6123629;23;20807;-76
2022/11/29 10:36:54;;;;;;;2.22;0.93;;;;;;;4.64;70.67;102979.47;6123500;23;20022;-77
2022/11/29 10:39:26;;;;;;;1.70;0.98;;;;;;;4.63;70.79;102977.66;6123661;23;20026;-77
2022/11/29 10:41:56;;;;;;;1.63;0.80;;;;;;;4.67;70.64;102989.06;6124904;23;20029;-78
2022/11/29 10:44:24;;;;;;;2.45;1.13;;;;;;;4.46;70.41;102955.38;6124012;23;20391;-77
2022/11/29 10:46:52;;;;;;;1.55;0.85;;;;;;;4.70;70.76;102994.34;6124617;23;20402;-77
2022/11/29 10:49:26;;;;;;;2.05;0.82;;;;;;;4.70;70.68;102992.66;6124220;23;20018;-77
2022/11/29 10:51:53;;;;;;;1.10;0.80;;;;;;;4.61;70.64;102986.19;6123403;23;20029;-77
2022/11/29 10:54:38;;;;;;;1.98;0.70;;;;;;;4.70;70.35;103000.41;6123142;23;20022;-77
2022/11/29 10:57:13;;;;;;;1.23;0.50;;;;;;;4.70;70.66;102992.66;6123882;23;20022;-77
2022/11/29 10:59:40;;;;;;;;;;;;;;;4.72;70.41;102995.28;6124138;23;20026;-76
2022/11/29 11:02:17;;;;;;;1.45;0.65;;;;;;;4.70;70.68;102994.34;6123922;23;19920;-76
2022/11/29 11:04:48;;;;;;;2.90;1.98;;;;;;;4.74;70.39;102998.81;6122024;23;20112;-76
2022/11/29 11:07:24;;;;;;;1.40;0.52;;;;;;;4.65;70.40;102976.03;6123073;23;20033;-78
2022/11/29 11:09:54;;;;;;;1.30;0.50;;;;;;;4.76;70.26;102994.59;6122602;23;20100;-77
2022/11/29 11:12:26;;;;;;;1.02;0.60;;;;;;;4.77;70.45;102991.19;6122321;23;20033;-76
2022/11/29 11:15:14;;;;;;;1.65;0.63;;;;;;;4.72;70.39;102975.47;6124336;23;20072;-79
2022/11/29 11:17:41;;;;;;;0.98;0.50;;;;;;;4.78;70.54;102992.06;6124796;23;20070;-79
2022/11/29 11:20:21;;;;;;;0.88;0.52;;;;;;;4.78;70.49;102982.63;6123823;23;20018;-79
2022/11/29 11:22:57;;;;;;;0.75;0.40;;;;;;;4.78;70.30;102982.63;6122637;23;20080;-78
2022/11/29 11:25:28;;;;;;;3.42;0.50;;;;;;;4.72;70.63;102971.97;6122735;23;20025;-79
2022/11/29 11:27:57;;;;;;;1.40;0.70;;;;;;;4.68;70.45;102965.81;6124026;23;20017;-79
2022/11/29 11:30:26;;;;;;;1.25;0.75;;;;;;;4.78;70.36;102981.69;6123029;23;20029;-79
2022/11/29 11:33:17;;;;;;;0.90;0.45;;;;;;;4.78;69.96;102982.63;6122961;23;20026;-78
2022/11/29 11:36:01;;;;;;;1.33;0.80;;;;;;;4.79;69.97;102994.72;6122751;23;20077;-79
2022/11/29 11:38:29;;;;;;;0.60;0.60;;;;;;;4.79;70.27;102986.97;6122632;23;20081;-79
2022/11/29 11:41:15;;;;;;;2.75;0.70;;;;;;;4.81;69.97;102992.19;6123513;23;20022;-79
2022/11/29 11:43:43;;;;;;;1.20;0.75;;;;;;;4.80;69.98;102985.25;6124207;23;20386;-78
2022/11/29 11:46:09;;;;;;;1.58;0.98;;;;;;;4.81;69.88;102992.19;6124355;23;20085;-79
2022/11/29 11:48:40;;;;;;;2.75;0.60;;;;;;;4.82;70.28;102988.78;6125813;23;20073;-78
2022/11/29 11:51:21;;;;;;;2.03;0.80;;;;;;;4.83;70.27;102990.56;6126463;23;20018;-79
2022/11/29 11:53:51;;;;;;;1.75;0.65;;;;;;;4.62;69.77;102946.56;6126947;23;20030;-79
2022/11/29 11:56:18;;;;;;;1.85;0.82;;;;;;;4.71;69.96;102971.09;6125542;23;20029;-79
2022/11/29 11:58:49;;;;;;;2.40;0.70;;;;;;;4.84;69.77;102992.31;6125646;23;20108;-79
2022/11/29 12:01:23;;;;;;;2.53;1.60;;;;;;;4.83;70.03;103004.38;6125431;23;20029;-79
2022/11/29 12:03:56;;;;;;;1.77;0.60;;;;;;;4.84;69.90;103005.25;6124375;23;20029;-79
2022/11/29 12:06:35;;;;;;;3.60;0.60;;;;;;;4.83;70.00;102996.59;6125455;23;20509;-79
2022/11/29 12:09:09;;;;;;;1.08;0.63;;;;;;;4.74;69.94;102986.75;6124731;23;20398;-78
2022/11/29 12:11:44;;;;;;;1.27;0.50;;;;;;;4.83;69.87;103003.50;6126163;23;20069;-79